Time;durP1;ratioP1;P1;durP2;ratioP2;P2;SDS_P1;SDS_P2;PMS_P1;PMS_P2;Temp;Humidity;BMP_temperature;BMP_pressure;BME280_temperature;BME280_humidity;BME280_pressure;Samples;Min_cycle;Max_cycle;Signal;HPM_P1;HPM_P2
2023/04/05 00:01:30;;;;;;;11.13;3.63;;;4.70;79.20;;;;;;5005079;28;20038;-72
2023/04/05 00:03:57;;;;;;;9.77;4.18;;;4.80;78.80;;;;;;5006875;28;20029;-73
2023/04/05 00:06:27;;;;;;;8.80;4.43;;;4.80;79.30;;;;;;5007728;28;20550;-72
2023/04/05 00:09:03;;;;;;;7.78;3.80;;;4.70;78.90;;;;;;5005047;28;20026;-72
2023/04/05 00:11:33;;;;;;;6.47;3.65;;;4.80;79.00;;;;;;5005076;28;20472;-72
2023/04/05 00:13:59;;;;;;;8.60;4.22;;;4.80;78.80;;;;;;5011333;28;20112;-72
2023/04/05 00:16:27;;;;;;;7.82;4.30;;;4.90;78.70;;;;;;5010012;28;20030;-72
2023/04/05 00:18:54;;;;;;;10.00;4.88;;;5.00;78.80;;;;;;5009752;28;20053;-72
2023/04/05 00:21:21;;;;;;;8.77;4.53;;;5.10;78.60;;;;;;5011346;28;20029;-72
2023/04/05 00:23:52;;;;;;;6.32;3.75;;;5.00;78.40;;;;;;5010105;28;20030;-72
2023/04/05 00:26:19;;;;;;;8.40;4.18;;;4.90;78.40;;;;;;5010782;28;20137;-74
2023/04/05 00:28:46;;;;;;;9.55;4.40;;;4.70;78.70;;;;;;5009096;28;20112;-72
2023/04/05 00:31:12;;;;;;;6.85;4.05;;;4.70;78.80;;;;;;5008878;28;20030;-73
2023/04/05 00:33:37;;;;;;;11.63;4.57;;;4.70;78.80;;;;;;5010924;28;20029;-72
2023/04/05 00:36:15;;;;;;;7.85;3.60;;;4.60;78.70;;;;;;5010509;28;20037;-73
2023/04/05 00:38:41;;;;;;;9.95;4.93;;;4.60;78.80;;;;;;5006228;28;20042;-73
2023/04/05 00:41:07;;;;;;;10.52;3.67;;;4.70;78.80;;;;;;5007669;28;20051;-72
2023/04/05 00:43:33;;;;;;;6.97;3.63;;;4.80;79.10;;;;;;5009257;28;20029;-72
2023/04/05 00:46:00;;;;;;;8.30;3.78;;;4.50;79.20;;;;;;5010277;28;20441;-73
2023/04/05 00:48:27;;;;;;;9.52;3.75;;;4.50;79.10;;;;;;5008445;28;20077;-72
2023/04/05 00:50:53;;;;;;;8.70;4.30;;;4.50;78.90;;;;;;5010460;28;20061;-72
2023/04/05 00:53:19;;;;;;;8.40;4.30;;;4.40;79.50;;;;;;5010788;28;20045;-72
2023/04/05 00:55:50;;;;;;;7.53;3.55;;;4.30;79.50;;;;;;5009561;28;20089;-72
2023/04/05 00:58:21;;;;;;;6.85;3.53;;;4.40;79.30;;;;;;5008851;28;20053;-72
2023/04/05 01:01:13;;;;;;;7.82;3.90;;;4.30;79.30;;;;;;5007110;28;20036;-72
2023/04/05 01:03:45;;;;;;;6.13;4.00;;;4.20;79.50;;;;;;5009833;28;20492;-72
2023/04/05 01:06:26;;;;;;;8.10;4.82;;;4.20;79.50;;;;;;5010062;28;20030;-73
2023/04/05 01:09:00;;;;;;;8.02;3.78;;;4.30;79.30;;;;;;5009114;28;20112;-72
2023/04/05 01:11:27;;;;;;;7.32;3.78;;;4.20;79.30;;;;;;5007400;28;20022;-73
2023/04/05 01:13:58;;;;;;;7.00;4.28;;;4.20;79.40;;;;;;5006987;28;20045;-73
2023/04/05 01:16:24;;;;;;;9.32;5.10;;;4.20;79.50;;;;;;5008247;28;20483;-72
2023/04/05 01:18:55;;;;;;;9.18;5.65;;;4.20;79.80;;;;;;5009582;28;20021;-72
2023/04/05 01:21:38;;;;;;;10.52;6.05;;;4.10;79.50;;;;;;5008755;28;20076;-72
2023/04/05 01:24:39;;;;;;;10.40;4.20;;;4.00;79.80;;;;;;5006888;28;20048;-72
2023/04/05 01:27:13;;;;;;;8.13;4.18;;;4.00;80.40;;;;;;5006226;28;20091;-72
2023/04/05 01:30:16;;;;;;;10.25;5.05;;;3.90;80.50;;;;;;5008657;28;20503;-72
2023/04/05 01:32:51;;;;;;;7.20;4.15;;;3.80;80.80;;;;;;4976656;28;20046;-72
2023/04/05 01:36:00;;;;;;;7.90;3.80;;;3.90;80.30;;;;;;5006577;28;20557;-73
2023/04/05 01:38:28;;;;;;;8.18;4.03;;;3.90;80.00;;;;;;5008804;28;20092;-72
2023/04/05 01:40:53;;;;;;;6.43;3.10;;;3.80;80.10;;;;;;5006611;28;20148;-72
2023/04/05 01:43:19;;;;;;;6.45;3.50;;;3.90;80.00;;;;;;5004990;28;20109;-72
2023/04/05 01:45:45;;;;;;;6.85;4.30;;;3.80;80.40;;;;;;5004365;28;20612;-71
2023/04/05 01:48:12;;;;;;;11.52;4.25;;;3.80;80.10;;;;;;5006239;28;20124;-73
2023/04/05 01:50:38;;;;;;;7.28;3.42;;;3.80;80.40;;;;;;5006245;28;20030;-72
2023/04/05 01:53:07;;;;;;;8.35;4.03;;;3.90;80.20;;;;;;5007599;28;20821;-72
2023/04/05 01:55:33;;;;;;;7.03;3.72;;;4.30;79.20;;;;;;5004063;28;20084;-72
2023/04/05 01:57:59;;;;;;;10.05;3.70;;;4.10;79.90;;;;;;5005571;28;20034;-73
2023/04/05 02:00:24;;;;;;;7.80;4.28;;;3.70;80.90;;;;;;5004501;28;20092;-72
2023/04/05 02:02:50;;;;;;;7.30;3.80;;;3.70;80.70;;;;;;5004545;28;20453;-72
2023/04/05 02:05:16;;;;;;;7.05;3.95;;;3.90;80.70;;;;;;5003193;28;20030;-73
2023/04/05 02:07:41;;;;;;;9.95;3.83;;;3.90;80.70;;;;;;5006060;28;20033;-72
2023/04/05 02:10:08;;;;;;;8.32;3.50;;;4.00;80.40;;;;;;5005910;28;20026;-72
2023/04/05 02:12:33;;;;;;;9.57;3.35;;;4.00;80.40;;;;;;5004825;28;22335;-72
2023/04/05 02:14:59;;;;;;;6.13;3.65;;;3.90;80.60;;;;;;5005686;28;20044;-72
2023/04/05 02:17:32;;;;;;;9.02;3.60;;;3.90;80.90;;;;;;5007828;28;20469;-73
2023/04/05 02:20:01;;;;;;;9.10;3.97;;;3.90;80.80;;;;;;5011046;28;20021;-72
2023/04/05 02:22:27;;;;;;;6.70;3.25;;;3.90;80.50;;;;;;5012374;28;20034;-72
2023/04/05 02:24:52;;;;;;;7.10;4.03;;;3.80;80.70;;;;;;5011692;28;20037;-73
2023/04/05 02:27:18;;;;;;;7.47;3.55;;;3.70;80.80;;;;;;5013100;28;20081;-73
2023/04/05 02:29:44;;;;;;;10.65;4.28;;;3.70;80.70;;;;;;5011727;28;20097;-71
2023/04/05 02:32:09;;;;;;;6.35;3.28;;;3.60;81.10;;;;;;5011589;28;20058;-71
2023/04/05 02:34:37;;;;;;;4.97;3.03;;;3.60;80.90;;;;;;5011844;28;20051;-71
2023/04/05 02:37:03;;;;;;;9.40;4.63;;;3.70;80.80;;;;;;5013418;28;20030;-72
2023/04/05 02:39:28;;;;;;;8.05;4.20;;;3.90;81.90;;;;;;5012191;28;20384;-71
2023/04/05 02:41:55;;;;;;;7.53;3.83;;;4.00;82.30;;;;;;5026927;28;20097;-71
2023/04/05 02:44:21;;;;;;;6.10;3.70;;;3.90;80.40;;;;;;5012056;28;20038;-71
2023/04/05 02:46:46;;;;;;;7.47;3.83;;;3.60;81.80;;;;;;5011162;28;20392;-71
2023/04/05 02:49:12;;;;;;;10.27;4.45;;;3.50;81.20;;;;;;5008808;28;20041;-72
2023/04/05 02:51:38;;;;;;;6.78;3.70;;;3.50;81.10;;;;;;5010056;28;20435;-71
2023/04/05 02:54:03;;;;;;;8.50;3.70;;;3.40;81.30;;;;;;5009863;28;20561;-71
2023/04/05 02:56:29;;;;;;;8.02;3.55;;;3.20;82.00;;;;;;5012172;28;20052;-71
2023/04/05 02:58:55;;;;;;;8.82;3.70;;;3.20;82.00;;;;;;5012705;28;20476;-71
2023/04/05 03:01:21;;;;;;;6.32;3.58;;;3.10;82.50;;;;;;5010828;28;20084;-71
2023/04/05 03:03:47;;;;;;;7.85;3.28;;;3.00;82.70;;;;;;5006801;28;20069;-72
2023/04/05 03:06:12;;;;;;;8.68;4.05;;;3.20;82.10;;;;;;5006248;28;20057;-71
2023/04/05 03:08:42;;;;;;;6.55;3.13;;;3.30;81.80;;;;;;5006623;28;20042;-71
2023/04/05 03:11:11;;;;;;;7.70;3.10;;;3.20;82.20;;;;;;5007229;28;20376;-71
2023/04/05 03:13:37;;;;;;;6.68;3.58;;;3.40;81.70;;;;;;5007069;28;20037;-71
2023/04/05 03:16:04;;;;;;;10.48;3.88;;;3.40;81.80;;;;;;5005791;28;20496;-71
2023/04/05 03:18:30;;;;;;;9.00;3.70;;;3.30;81.70;;;;;;5003016;28;20606;-71
2023/04/05 03:20:56;;;;;;;7.28;3.70;;;3.20;81.90;;;;;;5001683;28;20529;-71
2023/04/05 03:23:29;;;;;;;6.45;3.80;;;3.20;82.00;;;;;;5003002;28;20053;-71
2023/04/05 03:25:58;;;;;;;6.30;3.38;;;3.10;82.20;;;;;;5003147;28;20105;-71
2023/04/05 03:28:24;;;;;;;10.48;4.25;;;2.80;83.10;;;;;;5004762;28;20101;-71
2023/04/05 03:30:50;;;;;;;8.48;4.13;;;2.80;83.60;;;;;;5005990;28;20038;-71
2023/04/05 03:33:17;;;;;;;7.03;4.05;;;2.80;84.10;;;;;;5003836;28;20030;-72
2023/04/05 03:35:43;;;;;;;9.45;3.80;;;2.80;84.00;;;;;;5005274;28;20041;-70
2023/04/05 03:38:08;;;;;;;7.05;3.45;;;2.70;83.80;;;;;;5009796;28;20037;-71
2023/04/05 03:40:34;;;;;;;7.15;3.53;;;2.70;84.00;;;;;;5005508;28;20393;-70
2023/04/05 03:43:00;;;;;;;8.32;4.13;;;2.60;84.40;;;;;;5005614;28;20511;-71
2023/04/05 03:45:28;;;;;;;7.95;4.32;;;2.70;83.90;;;;;;5004972;28;20052;-71
2023/04/05 03:47:54;;;;;;;8.18;4.05;;;2.70;83.90;;;;;;5003662;28;20101;-71
2023/04/05 03:50:20;;;;;;;13.52;5.05;;;2.70;84.00;;;;;;5005987;28;20115;-71
2023/04/05 03:52:46;;;;;;;8.15;4.30;;;2.70;84.30;;;;;;5004782;28;20072;-71
2023/04/05 03:55:15;;;;;;;7.05;4.38;;;2.80;84.10;;;;;;5004110;28;20053;-70
2023/04/05 03:57:41;;;;;;;8.82;3.85;;;2.70;84.20;;;;;;5012162;28;20490;-71
2023/04/05 04:00:13;;;;;;;7.65;4.32;;;2.70;84.30;;;;;;5001091;28;20041;-71
2023/04/05 04:02:43;;;;;;;9.10;4.93;;;2.70;84.20;;;;;;4998760;28;20038;-70
2023/04/05 04:05:10;;;;;;;8.57;4.28;;;2.70;84.20;;;;;;5000302;28;20071;-71
2023/04/05 04:07:35;;;;;;;8.13;4.38;;;2.60;84.40;;;;;;5000194;28;20049;-71
2023/04/05 04:10:02;;;;;;;7.10;4.40;;;2.70;84.60;;;;;;5000227;28;20044;-71
2023/04/05 04:12:28;;;;;;;11.88;4.45;;;2.60;84.40;;;;;;5003037;28;20109;-71
2023/04/05 04:14:54;;;;;;;9.55;4.38;;;2.70;84.30;;;;;;5011529;28;20191;-70
2023/04/05 04:17:31;;;;;;;9.32;4.63;;;2.70;84.50;;;;;;4991515;28;20109;-71
2023/04/05 04:19:57;;;;;;;6.90;4.10;;;2.60;85.10;;;;;;5011396;28;20954;-71
2023/04/05 04:22:31;;;;;;;7.22;3.78;;;2.70;84.90;;;;;;5001545;28;20170;-71
2023/04/05 04:25:03;;;;;;;7.03;4.20;;;2.70;85.00;;;;;;5004403;28;20044;-71
2023/04/05 04:27:34;;;;;;;7.30;3.72;;;2.70;85.30;;;;;;5012850;28;20041;-72
2023/04/05 04:30:03;;;;;;;8.55;4.55;;;2.80;84.70;;;;;;5000574;28;22041;-72
2023/04/05 04:35:17;;;;;;;7.43;4.15;;;2.80;85.00;;;;;;5002876;28;20040;-72
2023/04/05 04:37:56;;;;;;;8.75;4.88;;;2.80;84.60;;;;;;4999284;28;20153;-72
2023/04/05 04:40:31;;;;;;;7.18;4.22;;;2.70;84.80;;;;;;4999320;28;20034;-72
2023/04/05 04:42:58;;;;;;;10.38;4.35;;;2.70;85.10;;;;;;4995602;28;20064;-73
2023/04/05 04:45:25;;;;;;;10.40;4.70;;;2.50;85.60;;;;;;4998728;28;20057;-72
2023/04/05 04:47:52;;;;;;;10.38;4.95;;;2.50;85.70;;;;;;5000522;28;20034;-72
2023/04/05 04:50:19;;;;;;;14.88;5.80;;;2.50;85.90;;;;;;5003015;28;20111;-72
2023/04/05 04:52:46;;;;;;;11.73;5.38;;;2.40;86.50;;;;;;5005205;28;20335;-73
2023/04/05 04:55:12;;;;;;;10.07;5.25;;;2.40;86.70;;;;;;4996691;28;20062;-71
2023/04/05 04:57:38;;;;;;;9.82;6.07;;;2.50;86.60;;;;;;5005569;28;20045;-72
2023/04/05 05:00:10;;;;;;;12.88;5.90;;;2.50;86.40;;;;;;5001113;28;20586;-72
2023/04/05 05:02:36;;;;;;;10.35;6.25;;;2.50;86.30;;;;;;5001712;28;20026;-72
2023/04/05 05:05:03;;;;;;;12.88;6.43;;;2.50;86.50;;;;;;5000041;28;20041;-72
2023/04/05 05:07:29;;;;;;;13.23;5.22;;;2.50;86.60;;;;;;5000660;28;20028;-71
2023/04/05 05:09:55;;;;;;;14.23;5.00;;;2.50;86.60;;;;;;5001192;28;20030;-72
2023/04/05 05:12:22;;;;;;;10.95;4.60;;;2.50;86.90;;;;;;4999695;28;20495;-72
2023/04/05 05:14:48;;;;;;;9.05;5.18;;;2.40;87.00;;;;;;4998954;28;20026;-71
2023/04/05 05:17:13;;;;;;;8.60;4.68;;;2.20;87.90;;;;;;5005294;28;20037;-72
2023/04/05 05:19:39;;;;;;;10.35;4.95;;;2.30;88.10;;;;;;4996479;28;20038;-72
2023/04/05 05:22:05;;;;;;;9.50;4.88;;;2.20;88.10;;;;;;4991471;28;20064;-72
2023/04/05 05:24:31;;;;;;;8.20;4.10;;;2.20;88.70;;;;;;4999555;28;20479;-73
2023/04/05 05:26:56;;;;;;;10.48;5.00;;;2.10;89.00;;;;;;5004444;28;20115;-72
2023/04/05 05:29:22;;;;;;;9.18;3.92;;;2.20;88.70;;;;;;4995249;28;20034;-72
2023/04/05 05:31:48;;;;;;;7.97;4.45;;;2.30;88.60;;;;;;4988313;28;20125;-72
2023/04/05 05:34:14;;;;;;;10.13;5.30;;;2.30;89.10;;;;;;4991781;28;20038;-72
2023/04/05 05:36:40;;;;;;;9.75;5.15;;;2.30;88.70;;;;;;4999718;28;20132;-72
2023/04/05 05:39:06;;;;;;;11.38;5.43;;;2.50;88.20;;;;;;5000762;28;20169;-71
2023/04/05 05:41:32;;;;;;;9.70;5.18;;;2.60;87.70;;;;;;5000324;28;20033;-71
2023/04/05 05:43:58;;;;;;;10.30;6.18;;;2.60;87.20;;;;;;5001588;28;20424;-71
2023/04/05 05:46:25;;;;;;;10.63;6.25;;;2.70;87.30;;;;;;5001437;28;20077;-72
2023/04/05 05:48:50;;;;;;;10.52;5.97;;;2.80;87.20;;;;;;5003314;28;20499;-73
2023/04/05 05:51:16;;;;;;;9.15;5.38;;;2.90;87.50;;;;;;5009730;28;20034;-71
2023/04/05 05:53:43;;;;;;;12.50;5.35;;;3.00;87.00;;;;;;5006961;28;20901;-73
2023/04/05 05:56:10;;;;;;;9.00;5.00;;;3.10;87.20;;;;;;5007733;28;20056;-76
2023/04/05 05:58:35;;;;;;;9.40;4.00;;;3.10;86.70;;;;;;5007225;28;20538;-74
2023/04/05 06:01:02;;;;;;;8.38;4.53;;;3.10;87.20;;;;;;5008047;28;20025;-75
2023/04/05 06:03:29;;;;;;;8.18;3.65;;;3.20;87.50;;;;;;5006175;28;20025;-76
2023/04/05 06:05:57;;;;;;;8.68;4.45;;;3.20;87.30;;;;;;5005547;28;20042;-75
2023/04/05 06:08:23;;;;;;;8.20;4.55;;;3.10;87.40;;;;;;5007330;28;20399;-76
2023/04/05 06:10:49;;;;;;;11.48;5.15;;;2.80;88.40;;;;;;5006667;28;20033;-76
2023/04/05 06:13:16;;;;;;;12.18;4.68;;;2.90;88.40;;;;;;5005980;28;20038;-77
2023/04/05 06:15:42;;;;;;;9.48;5.45;;;3.10;88.10;;;;;;5006573;28;20049;-75
2023/04/05 06:18:08;;;;;;;9.85;5.30;;;3.20;87.10;;;;;;5021533;28;20341;-75
2023/04/05 06:20:39;;;;;;;7.80;4.90;;;3.40;87.20;;;;;;5005705;28;20030;-76
2023/04/05 06:23:07;;;;;;;10.90;4.63;;;3.30;87.90;;;;;;5006288;28;20121;-76
2023/04/05 06:25:34;;;;;;;12.15;5.57;;;3.40;88.10;;;;;;5006323;28;20046;-76
2023/04/05 06:28:01;;;;;;;12.15;5.43;;;3.50;87.60;;;;;;5006457;28;20025;-75
2023/04/05 06:30:27;;;;;;;10.63;5.03;;;3.60;87.30;;;;;;5005802;28;20025;-75
2023/04/05 06:32:53;;;;;;;10.25;4.30;;;3.70;87.40;;;;;;5006715;28;20034;-75
2023/04/05 06:35:23;;;;;;;11.20;4.75;;;3.80;86.80;;;;;;5005568;28;20052;-76
2023/04/05 06:37:49;;;;;;;18.13;5.38;;;4.00;86.60;;;;;;5005505;28;20068;-75
2023/04/05 06:40:16;;;;;;;12.32;5.30;;;4.00;86.70;;;;;;5007378;28;20036;-75
2023/04/05 06:42:42;;;;;;;9.82;4.85;;;4.00;86.60;;;;;;5008356;28;20034;-76
2023/04/05 06:45:09;;;;;;;10.10;4.47;;;4.10;86.60;;;;;;5009029;28;20053;-76
2023/04/05 06:47:36;;;;;;;9.82;3.97;;;4.10;86.20;;;;;;5006468;28;20108;-77
2023/04/05 06:50:03;;;;;;;9.20;4.30;;;4.20;86.40;;;;;;5008129;28;20041;-75
2023/04/05 06:52:29;;;;;;;9.65;4.72;;;4.20;85.40;;;;;;5007865;28;20406;-75
2023/04/05 06:54:55;;;;;;;7.70;4.13;;;4.30;84.90;;;;;;5007906;28;20025;-73
2023/04/05 06:57:21;;;;;;;7.72;4.88;;;4.50;84.90;;;;;;5006290;28;20025;-74
2023/04/05 06:59:47;;;;;;;8.98;4.72;;;6.00;82.30;;;;;;5008446;28;20487;-76
2023/04/05 07:02:12;;;;;;;10.35;4.10;;;8.20;77.70;;;;;;5004648;28;20026;-76
2023/04/05 07:04:38;;;;;;;9.63;5.00;;;10.10;73.90;;;;;;5004891;28;20064;-78
2023/04/05 07:07:05;;;;;;;14.65;4.78;;;10.80;71.60;;;;;;5005224;28;20026;-76
2023/04/05 07:09:34;;;;;;;12.77;4.60;;;11.50;70.30;;;;;;5009541;28;20105;-75
2023/04/05 07:12:02;;;;;;;14.63;5.03;;;11.70;69.10;;;;;;5003661;28;20400;-74
2023/04/05 07:14:32;;;;;;;13.13;4.30;;;12.00;69.60;;;;;;4997133;28;20030;-75
2023/04/05 07:16:58;;;;;;;7.63;4.03;;;12.00;69.00;;;;;;5005832;28;20034;-76
2023/04/05 07:19:25;;;;;;;12.07;4.75;;;11.90;68.80;;;;;;5013313;28;20032;-78
2023/04/05 07:21:51;;;;;;;8.18;4.88;;;11.40;68.90;;;;;;5012549;28;20029;-77
2023/04/05 07:24:16;;;;;;;9.50;4.32;;;10.00;70.60;;;;;;5010329;28;20088;-76
2023/04/05 07:26:42;;;;;;;10.45;5.40;;;7.80;75.10;;;;;;5005244;28;20508;-77
2023/04/05 07:29:08;;;;;;;16.35;5.50;;;6.50;78.10;;;;;;5002171;28;20042;-76
2023/04/05 07:31:34;;;;;;;9.32;5.68;;;5.80;79.50;;;;;;5003332;28;20825;-75
2023/04/05 07:34:00;;;;;;;12.35;4.90;;;5.50;80.30;;;;;;5000057;28;20037;-77
2023/04/05 07:36:29;;;;;;;10.85;6.95;;;5.40;81.90;;;;;;5003200;28;20041;-75
2023/04/05 07:38:56;;;;;;;13.25;5.90;;;5.20;83.20;;;;;;5001158;28;20026;-76
2023/04/05 07:41:22;;;;;;;11.57;6.38;;;5.20;83.50;;;;;;5001727;28;20029;-75
2023/04/05 07:43:48;;;;;;;14.35;8.00;;;5.30;83.30;;;;;;5005948;28;20250;-75
2023/04/05 07:46:14;;;;;;;11.23;5.70;;;5.40;84.10;;;;;;5008055;28;20449;-74
2023/04/05 07:48:40;;;;;;;11.57;7.43;;;5.30;83.40;;;;;;5004188;28;20029;-74
2023/04/05 07:51:07;;;;;;;18.05;6.30;;;5.30;83.20;;;;;;5004582;28;20128;-74
2023/04/05 07:53:35;;;;;;;14.13;5.90;;;5.30;83.80;;;;;;5002189;28;20651;-75
2023/04/05 07:56:11;;;;;;;12.90;5.90;;;5.40;83.30;;;;;;5004089;28;20752;-75
2023/04/05 07:58:40;;;;;;;14.57;5.82;;;5.50;83.20;;;;;;5001049;28;20432;-75
2023/04/05 08:01:08;;;;;;;9.52;4.97;;;5.60;82.20;;;;;;5002876;28;20038;-75
2023/04/05 08:03:35;;;;;;;12.05;5.53;;;5.60;81.60;;;;;;5003527;28;20044;-75
2023/04/05 08:06:17;;;;;;;12.25;6.05;;;5.80;81.80;;;;;;5003684;28;20503;-75
2023/04/05 08:08:44;;;;;;;10.40;5.55;;;5.80;82.40;;;;;;5002937;28;20030;-75
2023/04/05 08:11:10;;;;;;;16.40;5.00;;;6.00;82.00;;;;;;5001944;28;20421;-74
2023/04/05 08:13:39;;;;;;;8.98;4.93;;;6.00;81.60;;;;;;5002669;28;20046;-75
2023/04/05 08:16:05;;;;;;;11.68;5.80;;;5.90;82.30;;;;;;5002536;28;20514;-75
2023/04/05 08:18:30;;;;;;;13.88;5.97;;;6.00;81.40;;;;;;4999123;28;20033;-74
2023/04/05 08:20:56;;;;;;;11.38;5.57;;;6.10;82.30;;;;;;5001237;28;20030;-75
2023/04/05 08:23:22;;;;;;;10.55;5.63;;;6.40;82.00;;;;;;5000047;28;20034;-75
2023/04/05 08:25:48;;;;;;;11.80;6.15;;;6.30;81.50;;;;;;4999778;28;20042;-74
2023/04/05 08:28:14;;;;;;;8.85;4.47;;;6.40;82.00;;;;;;5000514;28;20523;-76
2023/04/05 08:30:41;;;;;;;8.52;4.53;;;6.50;80.70;;;;;;5001464;28;20037;-75
2023/04/05 08:33:07;;;;;;;11.68;4.53;;;6.40;81.10;;;;;;5000575;28;20030;-75
2023/04/05 08:35:35;;;;;;;9.45;5.15;;;6.40;81.50;;;;;;5001741;28;20025;-76
2023/04/05 08:38:01;;;;;;;8.40;4.68;;;6.50;80.70;;;;;;5001022;28;20038;-76
2023/04/05 08:40:47;;;;;;;9.52;5.43;;;6.30;80.80;;;;;;4996832;28;20433;-76
2023/04/05 08:43:36;;;;;;;7.60;4.50;;;6.40;80.90;;;;;;4995548;28;20045;-76
2023/04/05 08:46:07;;;;;;;9.80;4.70;;;6.60;81.30;;;;;;5000064;28;20049;-75
2023/04/05 08:48:35;;;;;;;10.25;4.10;;;6.80;80.80;;;;;;5000424;28;20056;-75
2023/04/05 08:51:00;;;;;;;8.65;5.25;;;6.70;80.20;;;;;;5001691;28;20026;-75
2023/04/05 08:53:27;;;;;;;8.77;5.07;;;6.80;80.30;;;;;;5000624;28;20080;-75
2023/04/05 08:55:55;;;;;;;10.57;4.70;;;6.90;79.90;;;;;;5000914;28;20049;-76
2023/04/05 08:58:23;;;;;;;10.35;4.72;;;6.80;78.70;;;;;;5004474;28;20388;-76
2023/04/05 09:00:52;;;;;;;9.57;4.97;;;7.10;78.60;;;;;;4999831;28;20068;-75
2023/04/05 09:03:21;;;;;;;8.27;4.68;;;10.80;75.40;;;;;;4999721;28;20580;-76
2023/04/05 09:05:51;;;;;;;9.50;4.72;;;12.30;70.50;;;;;;5001495;28;20349;-74
2023/04/05 09:08:17;;;;;;;8.35;4.57;;;12.40;69.00;;;;;;5001190;28;20033;-76
2023/04/05 09:10:44;;;;;;;8.65;4.10;;;12.40;69.50;;;;;;4999996;28;20033;-75
2023/04/05 09:13:09;;;;;;;7.68;4.13;;;13.20;68.50;;;;;;5000770;28;20041;-75
2023/04/05 09:15:36;;;;;;;10.55;4.45;;;14.10;68.30;;;;;;5000050;28;20647;-75
2023/04/05 09:18:02;;;;;;;7.70;4.53;;;15.10;67.80;;;;;;4999286;28;20034;-76
2023/04/05 09:20:28;;;;;;;13.57;4.93;;;15.80;66.30;;;;;;4999958;28;20076;-75
2023/04/05 09:22:55;;;;;;;6.70;3.95;;;14.90;67.40;;;;;;5000717;28;20088;-76
2023/04/05 09:25:30;;;;;;;11.27;5.38;;;13.90;65.30;;;;;;4997140;28;20033;-76
2023/04/05 09:27:57;;;;;;;9.82;4.30;;;14.30;66.70;;;;;;4999290;28;20512;-75
2023/04/05 09:30:23;;;;;;;9.52;4.10;;;14.50;65.90;;;;;;5000614;28;20263;-76
2023/04/05 09:32:53;;;;;;;11.68;4.75;;;15.40;66.00;;;;;;4999663;28;20033;-75
2023/04/05 09:35:21;;;;;;;7.90;4.70;;;14.80;65.70;;;;;;4996879;28;20026;-76
2023/04/05 09:37:52;;;;;;;11.75;4.75;;;14.20;65.60;;;;;;4996236;28;20116;-76
2023/04/05 09:40:19;;;;;;;9.85;5.18;;;14.10;66.30;;;;;;4996199;28;20479;-73
2023/04/05 09:42:45;;;;;;;7.57;4.22;;;14.40;67.10;;;;;;5014421;28;20561;-75
2023/04/05 09:45:12;;;;;;;8.57;4.75;;;13.60;66.30;;;;;;4999597;28;20093;-76
2023/04/05 09:47:37;;;;;;;9.55;4.75;;;12.40;66.50;;;;;;5000151;28;20141;-76
2023/04/05 09:50:17;;;;;;;9.38;4.72;;;11.10;68.90;;;;;;4999779;28;20094;-76
2023/04/05 09:52:43;;;;;;;9.48;4.88;;;10.30;70.60;;;;;;4999124;28;20030;-76
2023/04/05 09:55:10;;;;;;;7.95;4.75;;;10.00;70.60;;;;;;4996193;28;20661;-77
2023/04/05 09:57:37;;;;;;;10.05;4.82;;;10.00;70.90;;;;;;4998955;28;20105;-76
2023/04/05 10:00:17;;;;;;;10.77;5.13;;;10.20;71.50;;;;;;4999685;28;20034;-76
2023/04/05 10:02:42;;;;;;;7.78;4.22;;;10.00;70.70;;;;;;4999804;28;20068;-76
2023/04/05 10:05:12;;;;;;;8.48;4.95;;;9.80;70.90;;;;;;5000800;28;20069;-77
2023/04/05 10:07:39;;;;;;;9.15;3.88;;;10.00;70.70;;;;;;4999965;28;20029;-77
2023/04/05 10:10:05;;;;;;;11.27;4.28;;;10.10;71.20;;;;;;4999787;28;20061;-75
2023/04/05 10:12:32;;;;;;;6.65;4.18;;;10.00;69.50;;;;;;5000053;28;20046;-76
2023/04/05 10:14:58;;;;;;;7.28;4.22;;;10.10;69.00;;;;;;5000019;28;20037;-75
2023/04/05 10:17:32;;;;;;;7.53;4.38;;;10.10;69.30;;;;;;4998684;28;20041;-76
2023/04/05 10:20:21;;;;;;;6.97;3.75;;;10.00;67.70;;;;;;4993834;28;20030;-76
2023/04/05 10:23:06;;;;;;;7.18;3.95;;;10.00;69.50;;;;;;4994393;28;20034;-76
2023/04/05 10:26:11;;;;;;;10.68;4.55;;;10.40;69.50;;;;;;4992232;28;20531;-76
2023/04/05 10:28:42;;;;;;;8.70;4.30;;;10.30;67.80;;;;;;4977732;28;21104;-76
2023/04/05 10:31:26;;;;;;;12.73;4.60;;;10.30;69.00;;;;;;4994128;28;20041;-75
2023/04/05 10:34:07;;;;;;;10.85;5.95;;;10.70;68.10;;;;;;4993378;28;20030;-76
2023/04/05 10:36:49;;;;;;;12.18;4.40;;;10.90;67.80;;;;;;4999021;28;20034;-76
2023/04/05 10:39:38;;;;;;;16.05;8.80;;;10.70;67.30;;;;;;5003769;28;20038;-75
2023/04/05 10:42:25;;;;;;;9.27;6.13;;;10.80;68.60;;;;;;5003246;28;20059;-76
2023/04/05 10:44:54;;;;;;;10.43;5.07;;;11.40;67.40;;;;;;5002811;28;20052;-77
2023/04/05 10:47:25;;;;;;;6.95;4.22;;;11.20;66.30;;;;;;5002715;28;20105;-76
2023/04/05 10:49:55;;;;;;;10.10;7.47;;;11.00;65.50;;;;;;5000535;28;20367;-76
2023/04/05 10:52:22;;;;;;;10.75;5.53;;;11.10;67.50;;;;;;5001799;28;20033;-77
2023/04/05 10:54:48;;;;;;;6.88;4.05;;;11.40;65.50;;;;;;5002952;28;20111;-76
2023/04/05 10:57:17;;;;;;;5.88;3.63;;;11.20;65.90;;;;;;5002978;28;20088;-75
2023/04/05 10:59:44;;;;;;;6.10;3.45;;;11.40;65.90;;;;;;5003478;28;20058;-76
2023/04/05 11:02:10;;;;;;;5.18;3.33;;;11.40;65.80;;;;;;5001521;28;20448;-76
2023/04/05 11:04:36;;;;;;;7.65;3.83;;;11.90;66.20;;;;;;5002295;28;20053;-76
2023/04/05 11:07:12;;;;;;;12.18;4.00;;;11.90;65.70;;;;;;5004207;28;20471;-75
2023/04/05 11:09:50;;;;;;;6.97;4.05;;;11.80;64.50;;;;;;5004251;28;20126;-76
2023/04/05 11:12:16;;;;;;;7.38;3.30;;;12.00;64.20;;;;;;5004223;28;20034;-76
2023/04/05 11:14:43;;;;;;;6.07;3.33;;;12.30;64.00;;;;;;5002643;28;20530;-76
2023/04/05 11:17:27;;;;;;;7.28;3.15;;;12.10;64.20;;;;;;5002922;28;20026;-76
2023/04/05 11:20:04;;;;;;;9.98;3.60;;;12.20;63.50;;;;;;5000615;28;20890;-76
2023/04/05 11:22:30;;;;;;;9.40;3.70;;;12.30;64.40;;;;;;5002720;28;20364;-75
2023/04/05 11:25:05;;;;;;;9.15;3.85;;;12.30;62.90;;;;;;5001868;28;20034;-77
2023/04/05 11:27:33;;;;;;;4.93;3.13;;;12.10;64.20;;;;;;5001520;28;20842;-76
2023/04/05 11:30:00;;;;;;;5.57;2.90;;;12.30;62.70;;;;;;5002712;28;20420;-76
2023/04/05 11:32:43;;;;;;;6.22;3.00;;;12.60;63.30;;;;;;5002668;28;20080;-77
2023/04/05 11:35:22;;;;;;;4.95;2.40;;;12.20;61.70;;;;;;5001025;28;20080;-76
2023/04/05 11:37:59;;;;;;;4.90;2.60;;;12.20;61.80;;;;;;5002116;28;20499;-79
2023/04/05 11:40:26;;;;;;;5.32;2.92;;;12.30;62.10;;;;;;5000768;28;20400;-77
2023/04/05 11:43:07;;;;;;;8.82;3.33;;;12.60;62.60;;;;;;5001302;28;20030;-77
2023/04/05 11:45:34;;;;;;;6.78;3.00;;;12.80;62.30;;;;;;5000491;28;20054;-77
2023/04/05 11:48:08;;;;;;;5.43;2.90;;;13.10;61.70;;;;;;5001507;28;20033;-76
2023/04/05 11:50:36;;;;;;;11.88;3.00;;;13.10;62.70;;;;;;5001581;28;20026;-77
2023/04/05 11:53:15;;;;;;;17.58;9.40;;;13.20;62.20;;;;;;5001382;28;20034;-78
2023/04/05 11:55:46;;;;;;;146.77;72.80;;;13.40;63.10;;;;;;5000392;28;20048;-77
2023/04/05 11:58:16;;;;;;;16.95;7.82;;;13.60;64.10;;;;;;5001097;28;20112;-79
2023/04/05 12:00:43;;;;;;;8.43;4.45;;;13.80;62.30;;;;;;5000555;28;20100;-78
2023/04/05 12:03:15;;;;;;;6.20;3.08;;;13.20;60.50;;;;;;5001632;28;20041;-77
2023/04/05 12:05:48;;;;;;;6.07;3.40;;;13.70;63.60;;;;;;4995189;28;20033;-77
2023/04/05 12:08:14;;;;;;;7.75;3.95;;;13.50;61.80;;;;;;4999122;28;20044;-77
2023/04/05 12:10:40;;;;;;;6.05;3.30;;;13.50;63.40;;;;;;5002446;28;20060;-76
2023/04/05 12:13:06;;;;;;;5.47;3.28;;;13.60;63.60;;;;;;5000504;28;20030;-77
2023/04/05 12:15:39;;;;;;;7.35;3.55;;;13.60;62.40;;;;;;5001855;28;20372;-75
2023/04/05 12:18:12;;;;;;;7.60;3.88;;;13.70;62.90;;;;;;5002189;28;20544;-73
2023/04/05 12:20:38;;;;;;;7.25;2.95;;;14.00;62.50;;;;;;5001064;28;20589;-75
2023/04/05 12:23:03;;;;;;;8.77;3.47;;;14.20;63.60;;;;;;5002264;28;20029;-74
2023/04/05 12:25:30;;;;;;;6.07;3.45;;;13.90;62.90;;;;;;5001342;28;20387;-74
2023/04/05 12:27:55;;;;;;;6.60;3.28;;;13.70;62.70;;;;;;5000294;28;20025;-75
2023/04/05 12:30:22;;;;;;;10.85;4.13;;;13.60;62.00;;;;;;4992282;28;20022;-76
2023/04/05 12:32:56;;;;;;;9.27;3.38;;;13.90;62.70;;;;;;5002030;28;20030;-74
2023/04/05 12:35:23;;;;;;;6.13;3.87;;;13.60;62.60;;;;;;5000310;28;20026;-75
2023/04/05 12:37:52;;;;;;;6.25;3.80;;;13.60;62.40;;;;;;5000143;28;20017;-75
2023/04/05 12:40:22;;;;;;;7.13;3.25;;;13.80;62.70;;;;;;5001630;28;20163;-75
2023/04/05 12:42:48;;;;;;;7.53;3.45;;;13.50;63.00;;;;;;5000121;28;20119;-75
2023/04/05 12:45:13;;;;;;;7.53;4.00;;;13.80;63.40;;;;;;4999329;28;20053;-75
2023/04/05 12:47:56;;;;;;;7.80;3.30;;;13.80;62.80;;;;;;5001946;28;20070;-76
2023/04/05 12:50:27;;;;;;;10.07;3.03;;;14.00;63.00;;;;;;4998935;28;20033;-75
2023/04/05 12:53:04;;;;;;;12.85;3.38;;;14.10;63.20;;;;;;5001680;28;20388;-75
2023/04/05 12:55:30;;;;;;;7.45;3.45;;;14.20;62.40;;;;;;5001076;28;20058;-75
2023/04/05 12:58:01;;;;;;;7.22;3.70;;;14.20;63.80;;;;;;5000077;28;20037;-75
2023/04/05 13:00:29;;;;;;;14.30;4.82;;;14.10;63.30;;;;;;4999450;28;20036;-76
2023/04/05 13:02:56;;;;;;;9.13;5.10;;;14.20;64.30;;;;;;5000858;28;20036;-75